TimeEST,TemperatureF,Dew PointF,Humidity,Sea Level PressureIn,VisibilityMPH,Wind Direction,Wind SpeedMPH,Gust SpeedMPH,PrecipitationIn,Events,Conditions,WindDirDegrees,DateUTC
12:15 AM,32.0,22.1,67,29.71,10.0,SSW,13.8,-,N/A,,Clear,200,2014-01-20 05:15:00
12:35 AM,32.2,22.6,68,29.70,10.0,SSW,13.8,-,N/A,,Clear,200,2014-01-20 05:35:00
12:55 AM,32.5,22.8,67,29.69,10.0,SSW,15.0,-,N/A,,Clear,210,2014-01-20 05:55:00
1:15 AM,32.5,22.8,67,29.68,10.0,SSW,15.0,20.7,N/A,,Clear,210,2014-01-20 06:15:00
1:35 AM,32.9,23.0,67,29.68,10.0,SSW,15.0,-,N/A,,Clear,210,2014-01-20 06:35:00
1:55 AM,32.9,23.0,67,29.68,10.0,SSW,13.8,-,N/A,,Clear,200,2014-01-20 06:55:00
2:15 AM,33.1,23.0,66,29.67,10.0,SSW,13.8,-,N/A,,Clear,200,2014-01-20 07:15:00
2:35 AM,33.3,23.0,66,29.67,10.0,SSW,12.7,-,N/A,,Clear,200,2014-01-20 07:35:00
2:55 AM,33.1,23.0,66,29.67,10.0,SSW,12.7,-,N/A,,Clear,200,2014-01-20 07:55:00
3:15 AM,32.9,23.0,67,29.68,10.0,SSW,12.7,-,N/A,,Clear,200,2014-01-20 08:15:00
3:35 AM,33.1,23.2,67,29.67,10.0,SSW,12.7,-,N/A,,Clear,200,2014-01-20 08:35:00
3:55 AM,33.1,23.2,67,29.68,10.0,SSW,11.5,-,N/A,,Clear,200,2014-01-20 08:55:00
4:15 AM,33.1,23.2,67,29.68,10.0,SSW,10.4,-,N/A,,Clear,200,2014-01-20 09:15:00
4:35 AM,33.1,23.0,66,29.68,10.0,SSW,11.5,-,N/A,,Clear,200,2014-01-20 09:35:00
4:55 AM,32.9,23.0,67,29.68,10.0,SSW,11.5,-,N/A,,Clear,200,2014-01-20 09:55:00
5:15 AM,33.4,23.0,66,29.68,10.0,SSW,12.7,-,N/A,,Clear,210,2014-01-20 10:15:00
5:35 AM,33.6,23.0,65,29.68,10.0,SW,12.7,-,N/A,,Clear,220,2014-01-20 10:35:00
5:55 AM,33.6,22.6,64,29.69,10.0,SW,12.7,-,N/A,,Clear,220,2014-01-20 10:55:00
6:15 AM,34.5,22.6,62,29.70,10.0,SW,12.7,-,N/A,,Clear,220,2014-01-20 11:15:00
6:35 AM,34.7,23.0,62,29.70,10.0,SW,13.8,19.6,N/A,,Clear,230,2014-01-20 11:35:00
6:55 AM,34.3,23.0,63,29.70,10.0,SW,10.4,-,N/A,,Clear,230,2014-01-20 11:55:00
7:15 AM,34.5,23.4,64,29.71,10.0,WSW,10.4,-,N/A,,Mostly Cloudy,240,2014-01-20 12:15:00
7:35 AM,35.4,23.9,63,29.73,10.0,WSW,12.7,-,N/A,,Overcast,240,2014-01-20 12:35:00
7:55 AM,35.8,24.4,63,29.73,10.0,WSW,16.1,-,N/A,,Overcast,240,2014-01-20 12:55:00
8:15 AM,36.3,24.6,63,29.74,10.0,WSW,16.1,-,N/A,,Overcast,240,2014-01-20 13:15:00
8:35 AM,36.3,25.2,64,29.76,10.0,WSW,15.0,-,N/A,,Overcast,240,2014-01-20 13:35:00
8:55 AM,36.5,25.3,64,29.76,10.0,WSW,13.8,-,N/A,,Overcast,240,2014-01-20 13:55:00
9:15 AM,36.5,25.5,64,29.77,10.0,WSW,13.8,-,N/A,,Overcast,240,2014-01-20 14:15:00
9:35 AM,36.5,25.9,65,29.78,10.0,WSW,10.4,-,N/A,,Overcast,240,2014-01-20 14:35:00
9:55 AM,36.9,26.4,66,29.79,10.0,WSW,10.4,-,N/A,,Overcast,240,2014-01-20 14:55:00
10:15 AM,37.2,27.0,66,29.80,10.0,WSW,12.7,-,N/A,,Overcast,250,2014-01-20 15:15:00
10:35 AM,37.9,27.5,66,29.81,10.0,West,11.5,-,N/A,,Overcast,260,2014-01-20 15:35:00
10:55 AM,37.9,27.3,66,29.82,10.0,West,12.7,-,N/A,,Overcast,260,2014-01-20 15:55:00
11:15 AM,38.1,27.3,65,29.82,10.0,West,13.8,-,N/A,,Overcast,260,2014-01-20 16:15:00
11:35 AM,38.3,27.7,66,29.83,10.0,West,15.0,18.4,N/A,,Overcast,260,2014-01-20 16:35:00
11:55 AM,38.7,27.5,64,29.83,10.0,West,15.0,18.4,N/A,,Overcast,280,2014-01-20 16:55:00
12:15 PM,38.8,27.5,64,29.83,10.0,West,16.1,19.6,N/A,,Overcast,270,2014-01-20 17:15:00
12:35 PM,38.8,27.7,64,29.83,10.0,West,13.8,-,N/A,,Overcast,260,2014-01-20 17:35:00
12:55 PM,39.2,28.0,64,29.82,10.0,West,11.5,16.1,N/A,,Overcast,280,2014-01-20 17:55:00
1:15 PM,39.4,28.2,64,29.82,10.0,West,13.8,-,N/A,,Overcast,260,2014-01-20 18:15:00
1:35 PM,39.4,28.4,65,29.82,10.0,West,12.7,-,N/A,,Overcast,270,2014-01-20 18:35:00
1:55 PM,39.2,28.2,65,29.82,10.0,West,12.7,-,N/A,,Overcast,280,2014-01-20 18:55:00
2:15 PM,38.8,28.2,66,29.83,10.0,West,12.7,17.3,N/A,,Overcast,270,2014-01-20 19:15:00
2:35 PM,38.5,28.2,67,29.84,10.0,West,9.2,-,N/A,,Overcast,270,2014-01-20 19:35:00
2:55 PM,38.3,27.5,65,29.84,10.0,West,11.5,16.1,N/A,,Overcast,280,2014-01-20 19:55:00
3:15 PM,37.9,27.3,66,29.85,10.0,West,11.5,-,N/A,,Overcast,270,2014-01-20 20:15:00
3:35 PM,37.8,27.7,67,29.86,10.0,West,8.1,-,N/A,,Overcast,270,2014-01-20 20:35:00
3:55 PM,37.4,27.0,66,29.86,10.0,WNW,10.4,-,N/A,,Overcast,290,2014-01-20 20:55:00
4:15 PM,37.4,26.2,64,29.87,10.0,West,8.1,-,N/A,,Overcast,270,2014-01-20 21:15:00
4:35 PM,37.2,26.1,64,29.88,10.0,West,8.1,-,N/A,,Overcast,280,2014-01-20 21:35:00
4:55 PM,36.5,26.2,66,29.90,10.0,NW,11.5,-,N/A,,Overcast,310,2014-01-20 21:55:00
5:15 PM,35.8,26.6,69,29.90,10.0,NW,8.1,-,N/A,,Overcast,320,2014-01-20 22:15:00
5:35 PM,34.9,27.3,74,29.91,10.0,NNW,5.8,-,N/A,,Overcast,340,2014-01-20 22:35:00
5:55 PM,34.3,27.3,76,29.92,10.0,NNW,6.9,-,N/A,,Overcast,340,2014-01-20 22:55:00
6:15 PM,34.0,26.8,75,29.92,10.0,North,4.6,-,N/A,,Overcast,360,2014-01-20 23:15:00
6:35 PM,33.6,26.4,75,29.92,10.0,Calm,Calm,-,N/A,,Overcast,0,2014-01-20 23:35:00
6:55 PM,33.3,26.1,75,29.93,10.0,Calm,Calm,-,N/A,,Overcast,0,2014-01-20 23:55:00
7:15 PM,33.1,25.9,75,29.93,10.0,Calm,Calm,-,N/A,,Overcast,0,2014-01-21 00:15:00
7:35 PM,32.9,26.2,76,29.93,10.0,Calm,Calm,-,N/A,,Scattered Clouds,0,2014-01-21 00:35:00
7:55 PM,32.4,26.2,78,29.93,10.0,NNE,3.5,-,N/A,,Clear,30,2014-01-21 00:55:00
8:15 PM,32.2,26.4,79,29.92,10.0,North,4.6,-,N/A,,Clear,10,2014-01-21 01:15:00
8:35 PM,32.0,26.1,79,29.92,10.0,Calm,Calm,-,N/A,,Clear,0,2014-01-21 01:35:00
8:55 PM,31.1,25.7,80,29.91,10.0,NE,4.6,-,N/A,,Clear,50,2014-01-21 01:55:00
9:15 PM,30.4,25.3,82,29.91,10.0,NE,4.6,-,N/A,,Scattered Clouds,40,2014-01-21 02:15:00
9:35 PM,29.8,25.3,83,29.90,10.0,NE,4.6,-,N/A,,Mostly Cloudy,40,2014-01-21 02:35:00
9:55 PM,30.0,25.5,83,29.90,7.0,ENE,3.5,-,N/A,,Overcast,60,2014-01-21 02:55:00
10:15 PM,30.6,25.7,82,29.90,7.0,Calm,Calm,-,N/A,,Overcast,0,2014-01-21 03:15:00
10:35 PM,31.1,26.2,82,29.89,7.0,Calm,Calm,-,N/A,,Overcast,0,2014-01-21 03:35:00
10:55 PM,31.3,26.1,81,29.90,10.0,Calm,Calm,-,N/A,,Overcast,0,2014-01-21 03:55:00
11:15 PM,31.3,25.7,80,29.88,7.0,Calm,Calm,-,N/A,,Overcast,0,2014-01-21 04:15:00
11:35 PM,31.1,25.7,80,29.88,7.0,ENE,4.6,-,N/A,,Overcast,60,2014-01-21 04:35:00
11:55 PM,31.1,26.1,82,29.87,7.0,Calm,Calm,-,N/A,,Overcast,0,2014-01-21 04:55:00